createdAt,value
2017-08-10T00:02:13.890Z,7.93
2017-08-10T00:07:15.653Z,14.60
2017-08-10T00:12:17.366Z,9.13
2017-08-10T00:17:19.087Z,11.80
2017-08-10T00:22:20.795Z,13.53
2017-08-10T00:27:22.515Z,11.03
2017-08-10T00:32:24.212Z,25.60
2017-08-10T00:37:25.923Z,8.40
2017-08-10T00:42:27.651Z,10.97
2017-08-10T00:47:29.383Z,17.83
2017-08-10T00:52:31.111Z,16.40
2017-08-10T00:57:33.581Z,14.10
2017-08-10T01:02:35.285Z,11.80
2017-08-10T01:07:37.053Z,9.17
2017-08-10T01:12:38.757Z,14.70
2017-08-10T01:17:40.495Z,14.23
2017-08-10T01:22:42.253Z,9.33
2017-08-10T01:27:44.019Z,15.50
2017-08-10T01:32:46.484Z,10.10
2017-08-10T01:37:48.202Z,9.73
2017-08-10T01:42:49.950Z,12.20
2017-08-10T01:47:51.751Z,10.83
2017-08-10T01:52:53.490Z,11.53
2017-08-10T01:57:55.261Z,11.20
2017-08-10T02:02:57.052Z,10.50
2017-08-10T02:07:58.879Z,14.67
2017-08-10T02:13:00.630Z,15.93
2017-08-10T02:18:02.389Z,10.13
2017-08-10T02:23:04.183Z,22.83
2017-08-10T02:28:05.922Z,13.53
2017-08-10T02:33:08.371Z,13.60
2017-08-10T02:38:10.071Z,11.43
2017-08-10T02:43:11.783Z,16.43
2017-08-10T02:48:13.511Z,12.73
2017-08-10T02:53:15.563Z,12.93
2017-08-10T02:58:17.334Z,10.83
2017-08-10T03:03:19.146Z,13.87
2017-08-10T03:08:21.372Z,19.77
2017-08-10T03:13:23.102Z,16.63
2017-08-10T03:18:24.847Z,17.27
2017-08-10T03:23:26.557Z,22.37
2017-08-10T03:28:28.300Z,21.67
2017-08-10T03:33:30.002Z,18.90
2017-08-10T03:38:31.729Z,22.07
2017-08-10T03:43:33.491Z,19.00
2017-08-10T03:48:35.262Z,19.03
2017-08-10T03:53:36.975Z,14.87
2017-08-10T03:58:38.710Z,32.30
2017-08-10T04:03:41.170Z,27.40
2017-08-10T04:08:42.898Z,27.13
2017-08-10T04:13:44.618Z,24.67
2017-08-10T04:18:46.366Z,37.50
2017-08-10T04:23:48.066Z,31.63
2017-08-10T04:28:49.797Z,32.73
2017-08-10T04:33:51.509Z,34.00
2017-08-10T04:38:53.222Z,31.33
2017-08-10T04:43:54.939Z,20.93
2017-08-10T04:48:56.660Z,28.40
2017-08-10T04:53:58.362Z,26.17
2017-08-10T04:59:00.834Z,21.43
2017-08-10T05:04:02.571Z,27.90
2017-08-10T05:09:04.286Z,35.03
2017-08-10T05:14:05.991Z,22.10
2017-08-10T05:19:07.714Z,21.60
2017-08-10T05:24:09.464Z,19.50
2017-08-10T05:29:11.184Z,20.60
2017-08-10T05:34:15.535Z,19.97
2017-08-10T05:39:17.283Z,21.93
2017-08-10T05:44:19.001Z,19.30
2017-08-10T05:49:20.727Z,27.90
2017-08-10T05:54:22.444Z,27.80
2017-08-10T05:59:24.151Z,30.17
2017-08-10T06:04:26.103Z,38.70
2017-08-10T06:09:28.578Z,27.90
2017-08-10T06:14:30.287Z,26.37
2017-08-10T06:19:32.038Z,28.03
2017-08-10T06:24:33.758Z,31.20
2017-08-10T06:29:35.488Z,23.07
2017-08-10T06:34:37.198Z,23.70
2017-08-10T06:39:38.909Z,25.90
2017-08-10T06:44:40.618Z,21.43
2017-08-10T06:49:42.353Z,28.73
2017-08-10T06:54:44.089Z,32.20
2017-08-10T06:59:45.796Z,26.17
2017-08-10T07:04:48.663Z,22.73
2017-08-10T07:09:50.386Z,30.63
2017-08-10T07:14:52.105Z,26.03
2017-08-10T07:19:53.827Z,24.47
2017-08-10T07:24:55.552Z,23.77
2017-08-10T07:29:57.399Z,27.70
2017-08-10T07:34:59.103Z,34.47
2017-08-10T07:40:00.850Z,27.20
2017-08-10T07:45:02.617Z,28.33
2017-08-10T07:50:04.359Z,26.70
2017-08-10T07:55:06.097Z,29.00
2017-08-10T08:00:07.823Z,34.37
2017-08-10T08:05:09.602Z,30.30
2017-08-10T08:10:11.803Z,34.00
2017-08-10T08:15:13.535Z,31.30
2017-08-10T08:20:16.142Z,35.60
2017-08-10T08:25:17.906Z,38.63
2017-08-10T08:30:19.651Z,35.40
2017-08-10T08:35:21.351Z,29.83
2017-08-10T08:40:23.101Z,32.50
2017-08-10T08:45:24.873Z,33.40
2017-08-10T08:50:26.607Z,35.00
2017-08-10T08:55:28.342Z,34.50
2017-08-10T09:00:30.051Z,36.13
2017-08-10T09:05:31.871Z,36.60
2017-08-10T09:10:34.502Z,36.70
2017-08-10T09:15:36.280Z,32.87
2017-08-10T09:20:38.033Z,31.30
2017-08-10T09:25:39.789Z,32.10
2017-08-10T09:30:41.575Z,28.20
2017-08-10T09:35:43.318Z,30.13
2017-08-10T09:40:45.191Z,25.90
2017-08-10T09:45:47.667Z,25.90
2017-08-10T09:50:49.426Z,19.00
2017-08-10T09:55:51.192Z,17.53
2017-08-10T10:00:52.921Z,19.43
2017-08-10T10:05:54.658Z,19.47
2017-08-10T10:10:56.383Z,23.23
2017-08-10T10:15:58.118Z,15.00
2017-08-10T10:21:01.055Z,17.00
2017-08-10T10:26:02.847Z,15.83
2017-08-10T10:31:04.603Z,15.30
2017-08-10T10:36:06.359Z,13.57
2017-08-10T10:41:08.088Z,17.00
2017-08-10T10:46:09.796Z,14.63
2017-08-10T10:51:18.483Z,14.83
2017-08-10T10:56:20.951Z,14.30
2017-08-10T11:01:23.440Z,16.20
2017-08-10T11:06:25.171Z,13.73
2017-08-10T11:11:26.889Z,19.30
2017-08-10T11:16:28.665Z,16.00
2017-08-10T11:21:30.386Z,21.33
2017-08-10T11:26:32.158Z,24.67
2017-08-10T11:31:34.307Z,17.10
2017-08-10T11:36:36.075Z,19.07
2017-08-10T11:41:37.831Z,16.87
2017-08-10T11:46:39.584Z,15.70
2017-08-10T11:51:42.073Z,13.90
2017-08-10T11:56:43.814Z,18.43
2017-08-10T12:01:46.294Z,14.40
2017-08-10T12:06:48.052Z,15.23
2017-08-10T12:11:49.804Z,22.03
2017-08-10T12:16:51.545Z,16.63
2017-08-10T12:21:53.263Z,19.33
2017-08-10T12:26:55.039Z,17.60
2017-08-10T12:31:56.800Z,17.83
2017-08-10T12:36:58.676Z,16.70
2017-08-10T12:42:00.515Z,19.90
2017-08-10T12:47:02.428Z,15.50
2017-08-10T12:52:04.919Z,18.10
2017-08-10T12:57:06.680Z,16.53
2017-08-10T13:02:08.427Z,13.10
2017-08-10T13:07:10.819Z,20.03
2017-08-10T13:12:12.526Z,16.90
2017-08-10T13:17:14.257Z,18.50
2017-08-10T13:22:15.999Z,15.53
2017-08-10T13:27:17.725Z,15.93
2017-08-10T13:32:20.195Z,17.60
2017-08-10T13:37:22.646Z,15.80
2017-08-10T13:42:25.122Z,18.87
2017-08-10T13:47:27.601Z,21.00
2017-08-10T13:52:29.331Z,15.93
2017-08-10T13:57:31.050Z,15.57
2017-08-10T14:02:33.555Z,12.40
2017-08-10T14:07:35.308Z,12.93
2017-08-10T14:12:37.087Z,13.63
2017-08-10T14:17:39.559Z,12.73
2017-08-10T14:22:41.263Z,12.60
2017-08-10T14:27:42.993Z,12.13
2017-08-10T14:32:44.715Z,13.63
2017-08-10T14:37:46.504Z,22.17
2017-08-10T14:42:48.219Z,22.40
2017-08-10T14:47:49.973Z,13.40
2017-08-10T14:52:51.693Z,13.30
2017-08-10T14:57:53.393Z,13.83
2017-08-10T15:02:55.860Z,24.10
2017-08-10T15:07:57.591Z,15.83
2017-08-10T15:13:00.047Z,19.20
2017-08-10T15:18:01.834Z,12.77
2017-08-10T15:23:03.625Z,13.77
2017-08-10T15:28:06.089Z,21.90
2017-08-10T15:33:08.548Z,15.33
2017-08-10T15:38:10.402Z,14.50
2017-08-10T15:43:12.130Z,14.57
2017-08-10T15:48:14.048Z,17.97
2017-08-10T15:53:15.950Z,14.83
2017-08-10T15:58:18.624Z,16.57
2017-08-10T16:03:20.617Z,17.10
2017-08-10T16:08:22.423Z,16.20
2017-08-10T16:13:24.446Z,15.63
2017-08-10T16:18:26.163Z,16.47
2017-08-10T16:23:27.876Z,17.13
2017-08-10T16:28:29.657Z,19.27
2017-08-10T16:33:31.386Z,16.80
2017-08-10T16:38:33.186Z,18.80
2017-08-10T16:43:34.935Z,15.47
2017-08-10T16:48:36.762Z,17.63
2017-08-10T16:53:38.486Z,14.37
2017-08-10T16:58:40.933Z,24.70
2017-08-10T17:03:42.652Z,17.97
2017-08-10T17:08:44.404Z,20.37
2017-08-10T17:13:46.160Z,24.63
2017-08-10T17:18:48.964Z,22.10
2017-08-10T17:23:50.859Z,21.47
2017-08-10T17:28:55.070Z,23.80
2017-08-10T17:33:56.890Z,22.03
2017-08-10T17:38:58.619Z,27.50
2017-08-10T17:44:00.391Z,25.00
2017-08-10T17:49:04.047Z,25.07
2017-08-10T17:54:06.756Z,20.87
2017-08-10T17:59:09.265Z,19.93
2017-08-10T18:04:11.947Z,24.50
2017-08-10T18:09:15.484Z,22.37
2017-08-10T18:14:18.317Z,25.63
2017-08-10T18:19:20.106Z,19.13
2017-08-10T18:24:22.512Z,21.10
2017-08-10T18:29:24.999Z,22.77
2017-08-10T18:34:26.923Z,25.30
2017-08-10T18:39:28.674Z,23.37
2017-08-10T18:44:30.379Z,28.10
2017-08-10T18:49:32.449Z,23.30
2017-08-10T18:54:35.167Z,22.80
2017-08-10T18:59:36.973Z,24.70
2017-08-10T19:04:38.724Z,29.40
2017-08-10T19:09:40.789Z,24.90
2017-08-10T19:14:43.488Z,26.90
2017-08-10T19:19:45.254Z,29.50
2017-08-10T19:24:47.100Z,28.27
2017-08-10T19:29:48.866Z,31.03
2017-08-10T19:34:52.387Z,32.73
2017-08-10T19:39:55.975Z,29.93
2017-08-10T19:44:57.720Z,39.23
2017-08-10T19:50:05.032Z,39.83
2017-08-10T19:55:06.786Z,31.60
2017-08-10T20:00:09.411Z,34.50
2017-08-10T20:05:11.850Z,30.13
2017-08-10T20:10:15.045Z,27.10
2017-08-10T20:15:17.228Z,24.30
2017-08-10T20:20:19.731Z,21.07
2017-08-10T20:25:21.602Z,28.83
2017-08-10T20:30:23.338Z,28.80
2017-08-10T20:35:25.058Z,22.23
2017-08-10T20:40:26.813Z,20.87
2017-08-10T20:45:28.542Z,16.13
2017-08-10T20:50:31.660Z,20.97
2017-08-10T20:55:33.468Z,16.63
2017-08-10T21:00:35.322Z,20.10
2017-08-10T21:05:37.071Z,12.57
2017-08-10T21:10:38.813Z,15.30
2017-08-10T21:15:40.544Z,15.47
2017-08-10T21:20:42.325Z,9.37
2017-08-10T21:25:44.092Z,7.43
2017-08-10T21:30:45.803Z,7.73
2017-08-10T21:35:47.535Z,16.47
2017-08-10T21:40:49.289Z,14.00
2017-08-10T21:45:51.002Z,13.07
2017-08-10T21:50:52.747Z,9.00
2017-08-10T21:55:54.511Z,12.57
2017-08-10T22:00:56.269Z,17.23
2017-08-10T22:05:57.994Z,16.63
2017-08-10T22:10:59.717Z,16.10
2017-08-10T22:16:01.607Z,11.87
2017-08-10T22:21:03.402Z,9.10
2017-08-10T22:26:05.134Z,18.10
2017-08-10T22:31:06.865Z,11.20
2017-08-10T22:36:09.023Z,13.90
2017-08-10T22:41:10.769Z,13.97
2017-08-10T22:46:12.790Z,21.90
2017-08-10T22:51:15.238Z,16.70
2017-08-10T22:56:16.932Z,18.17
2017-08-10T23:01:18.616Z,13.80
2017-08-10T23:06:20.365Z,22.03
2017-08-10T23:11:22.064Z,32.13
2017-08-10T23:16:23.799Z,32.00
2017-08-10T23:21:25.502Z,27.97
2017-08-10T23:26:28.499Z,30.73
2017-08-10T23:31:30.221Z,18.73
2017-08-10T23:36:31.962Z,31.37
2017-08-10T23:41:34.502Z,35.80
2017-08-10T23:46:36.239Z,25.10
2017-08-10T23:51:37.976Z,32.50
2017-08-10T23:56:40.457Z,17.33
